Des Peres, Missouri
Current Conditions -  °F | °C
As of 11:51 AM on Monday 22 Dec 2014 (Local Time) from KSTL Reporting Station
Light Rain Light Rain  
Wind Chill: 42°   Ceiling: 700
Heat Index: 47°   Visibility: 5mi
Dew Point: 44°   Wind: 10mph
Humidity: 90%   Direction: 150°SSE
Pressure: 29.66"   Gusts: NA
Location:  38.5796°N, 90.4197°W
Report Text: KSTL 221751Z 15009KT 5SM -RA BR BKN007 OVC018 08/07 A2966 RMK AO2 SLP047 P0003 60029 T00830067 10083 20044 58027
Loading
Personal Weather Stations






























Interactive Weather Map New forecast layout! Learn more

10-Day Weather Forecast

Advertisements
Track Severe Weather on mobile